Time;durP1;ratioP1;P1;durP2;ratioP2;P2;SDS_P1;SDS_P2;PMS_P1;PMS_P2;Temp;Humidity;BMP_temperature;BMP_pressure;BME280_temperature;BME280_humidity;BME280_pressure;Samples;Min_cycle;Max_cycle;Signal;HPM_P1;HPM_P2
2024/03/30 00:00:56;;;;;;;;;;;;;;;20.26;39.85;100938.52;102946;1292;63003;-81
2024/03/30 00:03:22;;;;;;;;;;;;;;;20.26;39.84;100937.80;102962;1290;62204;-80
2024/03/30 00:05:57;;;;;;;;;;;;;;;20.26;39.71;100941.02;102729;1294;62044;-82
2024/03/30 00:08:23;;;;;;;;;;;;;;;20.26;39.96;100938.14;103012;1292;62142;-80
2024/03/30 00:10:56;;;;;;;;;;;;;;;20.26;39.91;100944.06;102957;1291;62248;-81
2024/03/30 00:13:21;;;;;;;;;;;;;;;20.26;39.92;100947.27;102752;1291;74970;-81
2024/03/30 00:15:47;;;;;;;;;;;;;;;20.26;39.94;100947.66;102987;1292;62127;-81
2024/03/30 00:18:13;;;;;;;;;;;;;;;20.26;39.83;100952.09;102731;1291;63290;-81
2024/03/30 00:20:38;;;;;;;;;;;;;;;20.26;39.89;100954.09;102991;1294;62086;-80
2024/03/30 00:23:04;;;;;;;;;;;;;;;20.26;39.84;100953.89;102773;1292;62210;-81
2024/03/30 00:25:29;;;;;;;;;;;;;;;20.26;39.79;100955.16;102927;1293;75046;-83
2024/03/30 00:27:55;;;;;;;;;;;;;;;20.26;39.98;100950.88;102974;1292;62131;-82
2024/03/30 00:30:21;;;;;;;;;;;;;;;20.26;39.88;100949.44;102962;1292;62648;-82
2024/03/30 00:32:50;;;;;;;;;;;;;;;20.25;39.98;100948.39;102996;1290;62194;-81
2024/03/30 00:35:16;;;;;;;;;;;;;;;20.26;39.91;100944.44;102737;1294;62109;-81
2024/03/30 00:37:41;;;;;;;;;;;;;;;20.25;39.90;100939.64;102615;1292;62527;-82
2024/03/30 00:40:07;;;;;;;;;;;;;;;20.25;39.80;100934.29;102599;1293;62280;-82
2024/03/30 00:42:34;;;;;;;;;;;;;;;20.25;39.95;100936.98;102549;1294;63497;-80
2024/03/30 00:45:00;;;;;;;;;;;;;;;20.25;39.92;100935.73;102683;1294;62819;-81
2024/03/30 00:47:25;;;;;;;;;;;;;;;20.25;39.90;100936.98;102539;1294;62122;-81
2024/03/30 00:49:51;;;;;;;;;;;;;;;20.25;39.93;100935.74;102582;1293;62302;-80
2024/03/30 00:52:17;;;;;;;;;;;;;;;20.25;39.93;100931.95;102693;1295;63433;-82
2024/03/30 00:54:42;;;;;;;;;;;;;;;20.25;39.96;100927.16;102633;1294;63481;-81
2024/03/30 00:57:08;;;;;;;;;;;;;;;20.24;39.87;100927.36;102543;1295;63382;-80
2024/03/30 00:59:35;;;;;;;;;;;;;;;20.24;39.87;100925.41;102561;1292;62163;-80
2024/03/30 01:02:00;;;;;;;;;;;;;;;20.24;39.92;100923.98;102551;1294;62105;-81
2024/03/30 01:04:26;;;;;;;;;;;;;;;20.25;39.92;100921.63;102577;1294;62223;-81
2024/03/30 01:06:52;;;;;;;;;;;;;;;20.24;39.99;100922.02;102561;1294;63375;-81
2024/03/30 01:09:17;;;;;;;;;;;;;;;20.24;40.17;100925.95;102665;1294;62478;-81
2024/03/30 01:11:43;;;;;;;;;;;;;;;20.24;40.02;100922.89;103195;1292;62207;-80
2024/03/30 01:14:09;;;;;;;;;;;;;;;20.25;39.98;100921.80;102732;1291;62248;-81
2024/03/30 01:16:34;;;;;;;;;;;;;;;20.24;39.90;100917.36;102685;1291;62270;-81
2024/03/30 01:19:00;;;;;;;;;;;;;;;20.24;39.97;100916.66;102916;1294;62088;-81
2024/03/30 01:21:27;;;;;;;;;;;;;;;20.24;40.00;100915.26;102955;1291;62539;-81
2024/03/30 01:23:52;;;;;;;;;;;;;;;20.24;39.95;100919.02;102579;1295;63455;-80
2024/03/30 01:26:18;;;;;;;;;;;;;;;20.24;40.10;100919.70;102748;1294;62296;-81
2024/03/30 01:28:44;;;;;;;;;;;;;;;20.23;40.05;100924.38;102523;1294;72196;-81
2024/03/30 01:31:13;;;;;;;;;;;;;;;20.24;39.86;100919.19;102619;1294;62612;-81
2024/03/30 01:33:39;;;;;;;;;;;;;;;20.23;40.10;100922.25;102654;1293;62242;-82
2024/03/30 01:36:05;;;;;;;;;;;;;;;20.23;40.11;100922.42;102606;1294;63495;-82
2024/03/30 01:38:31;;;;;;;;;;;;;;;20.24;39.97;100925.44;102522;1295;62366;-81
2024/03/30 01:40:57;;;;;;;;;;;;;;;20.24;39.95;100921.52;102697;1295;63428;-81
2024/03/30 01:43:23;;;;;;;;;;;;;;;20.24;39.93;100921.69;102544;1295;63418;-81
2024/03/30 01:45:48;;;;;;;;;;;;;;;20.23;40.01;100922.41;102577;1293;62204;-81
2024/03/30 01:48:14;;;;;;;;;;;;;;;20.24;40.08;100923.13;102593;1294;62196;-81
2024/03/30 01:50:41;;;;;;;;;;;;;;;20.23;40.19;100926.73;102592;1295;72504;-80
2024/03/30 01:53:06;;;;;;;;;;;;;;;20.23;40.00;100931.00;102656;1294;75155;-82
2024/03/30 01:55:32;;;;;;;;;;;;;;;20.23;40.04;100931.55;102694;1292;62255;-80
2024/03/30 01:57:58;;;;;;;;;;;;;;;20.23;40.05;100931.22;102989;1291;62467;-82
2024/03/30 02:00:24;;;;;;;;;;;;;;;20.23;40.03;100930.34;102996;1292;62315;-81
2024/03/30 02:02:50;;;;;;;;;;;;;;;20.23;40.08;100931.23;102972;1294;62197;-81
2024/03/30 02:05:16;;;;;;;;;;;;;;;20.22;40.13;100928.79;102758;1292;62264;-81
2024/03/30 02:07:41;;;;;;;;;;;;;;;20.23;40.14;100934.80;103040;1292;62670;-82
2024/03/30 02:10:08;;;;;;;;;;;;;;;20.23;40.07;100933.19;102766;1291;62172;-82
2024/03/30 02:12:34;;;;;;;;;;;;;;;20.23;40.00;100933.92;103010;1293;71418;-81
2024/03/30 02:14:59;;;;;;;;;;;;;;;20.22;39.97;100936.61;102750;1289;62277;-80
2024/03/30 02:17:25;;;;;;;;;;;;;;;20.23;40.10;100945.14;102780;1291;62284;-81
2024/03/30 02:19:56;;;;;;;;;;;;;;;20.23;40.14;100948.56;102748;1291;62137;-82
2024/03/30 02:22:21;;;;;;;;;;;;;;;20.22;40.16;100949.83;102473;1293;663614;-82
2024/03/30 02:24:47;;;;;;;;;;;;;;;20.23;40.09;100952.49;102716;1294;62589;-82
2024/03/30 02:27:12;;;;;;;;;;;;;;;20.22;40.12;100951.46;102721;1295;63372;-81
2024/03/30 02:29:38;;;;;;;;;;;;;;;20.23;40.11;100954.30;102704;1291;63437;-80
2024/03/30 02:32:04;;;;;;;;;;;;;;;20.22;40.05;100952.58;102806;1294;62278;-82
2024/03/30 02:34:29;;;;;;;;;;;;;;;20.22;40.09;100957.02;102721;1292;72674;-81
2024/03/30 02:36:55;;;;;;;;;;;;;;;20.22;40.05;100962.56;102734;1294;62643;-80
2024/03/30 02:39:21;;;;;;;;;;;;;;;20.22;40.07;100955.09;102789;1291;62287;-80
2024/03/30 02:41:47;;;;;;;;;;;;;;;20.21;40.07;100961.52;102746;1289;63397;-81
2024/03/30 02:44:12;;;;;;;;;;;;;;;20.22;40.09;100965.98;102939;1289;62197;-81
2024/03/30 02:46:38;;;;;;;;;;;;;;;20.21;40.15;100959.73;103001;1295;62288;-81
2024/03/30 02:49:03;;;;;;;;;;;;;;;20.22;40.14;100960.27;102759;1290;62262;-80
2024/03/30 02:51:29;;;;;;;;;;;;;;;20.21;40.16;100964.05;102974;1291;62216;-80
2024/03/30 02:53:54;;;;;;;;;;;;;;;20.21;40.22;100960.85;103089;1291;62284;-80
2024/03/30 02:56:21;;;;;;;;;;;;;;;20.21;40.29;100957.27;102720;1292;63508;-81
2024/03/30 02:58:47;;;;;;;;;;;;;;;20.21;40.12;100962.27;102941;1293;62103;-80
2024/03/30 03:01:13;;;;;;;;;;;;;;;20.21;40.20;100958.00;102769;1291;62246;-81
2024/03/30 03:03:39;;;;;;;;;;;;;;;20.21;40.13;100957.10;102830;1291;63462;-83
2024/03/30 03:06:05;;;;;;;;;;;;;;;20.21;40.10;100958.00;102745;1291;63390;-81
2024/03/30 03:08:30;;;;;;;;;;;;;;;20.20;40.14;100963.91;102762;1291;62562;-82
2024/03/30 03:10:56;;;;;;;;;;;;;;;20.21;40.07;100966.03;102838;1291;62204;-82
2024/03/30 03:13:22;;;;;;;;;;;;;;;20.21;40.11;100972.27;102694;1291;62273;-82
2024/03/30 03:15:47;;;;;;;;;;;;;;;20.21;40.21;100971.77;102791;1292;62333;-81
2024/03/30 03:18:13;;;;;;;;;;;;;;;20.21;40.16;100968.90;102835;1292;63390;-81
2024/03/30 03:20:38;;;;;;;;;;;;;;;20.20;40.17;100968.75;102821;1292;62280;-81
2024/03/30 03:23:04;;;;;;;;;;;;;;;20.20;40.15;100971.97;102979;1292;62214;-81
2024/03/30 03:25:29;;;;;;;;;;;;;;;20.20;40.04;100973.77;102777;1294;62105;-81
2024/03/30 03:27:55;;;;;;;;;;;;;;;20.20;40.24;100972.32;102718;1292;62297;-81
2024/03/30 03:30:21;;;;;;;;;;;;;;;20.20;40.23;100966.78;102710;1291;62224;-81
2024/03/30 03:32:46;;;;;;;;;;;;;;;20.20;40.19;100969.48;102803;1291;72295;-81
2024/03/30 03:35:12;;;;;;;;;;;;;;;20.20;40.10;100970.18;102730;1294;62679;-81
2024/03/30 03:37:37;;;;;;;;;;;;;;;20.20;40.14;100974.30;102738;1292;63521;-82
2024/03/30 03:40:03;;;;;;;;;;;;;;;20.20;40.22;100973.58;102836;1291;62159;-80
2024/03/30 03:42:29;;;;;;;;;;;;;;;20.19;40.14;100968.45;102997;1291;62199;-81
2024/03/30 03:44:54;;;;;;;;;;;;;;;20.19;40.37;100968.27;102707;1291;72550;-80
2024/03/30 03:47:20;;;;;;;;;;;;;;;20.19;40.25;100963.79;102756;1292;62631;-81
2024/03/30 03:49:46;;;;;;;;;;;;;;;20.19;40.29;100965.95;102725;1294;63269;-81
2024/03/30 03:52:11;;;;;;;;;;;;;;;20.19;40.16;100967.75;102994;1291;62194;-82
2024/03/30 03:54:37;;;;;;;;;;;;;;;20.19;40.24;100968.84;102692;1289;62268;-80
2024/03/30 03:57:03;;;;;;;;;;;;;;;20.19;40.13;100967.59;102766;1292;72308;-81
2024/03/30 03:59:28;;;;;;;;;;;;;;;20.19;40.11;100967.40;102973;1294;62145;-81
2024/03/30 04:01:54;;;;;;;;;;;;;;;20.18;40.15;100968.34;102933;1289;62203;-80
2024/03/30 04:04:20;;;;;;;;;;;;;;;20.19;40.10;100973.85;102809;1291;62201;-81
2024/03/30 04:06:45;;;;;;;;;;;;;;;20.19;40.12;100976.34;102760;1294;63480;-80
2024/03/30 04:09:11;;;;;;;;;;;;;;;20.18;40.10;100972.98;102769;1291;62239;-80
2024/03/30 04:11:37;;;;;;;;;;;;;;;20.18;40.11;100972.96;102797;1294;62133;-81
2024/03/30 04:14:02;;;;;;;;;;;;;;;20.18;40.19;100975.64;102709;1294;63415;-80
2024/03/30 04:16:28;;;;;;;;;;;;;;;20.18;40.23;100979.41;102708;1292;62727;-82
2024/03/30 04:18:54;;;;;;;;;;;;;;;20.19;40.09;100981.00;103091;1292;63336;-81
2024/03/30 04:21:19;;;;;;;;;;;;;;;20.18;40.20;100979.96;102748;1291;62289;-83
2024/03/30 04:23:45;;;;;;;;;;;;;;;20.19;40.17;100980.48;102680;1295;76480;-80
2024/03/30 04:26:11;;;;;;;;;;;;;;;20.18;40.17;100982.65;103040;1291;63461;-82
2024/03/30 04:28:37;;;;;;;;;;;;;;;20.18;40.22;100982.81;102715;1292;62150;-80
2024/03/30 04:31:03;;;;;;;;;;;;;;;20.18;40.22;100984.99;102866;1291;63359;-82
2024/03/30 04:33:29;;;;;;;;;;;;;;;20.18;40.18;100986.58;102721;1291;62110;-80
2024/03/30 04:35:55;;;;;;;;;;;;;;;20.18;40.23;100990.67;103008;1294;62201;-80
2024/03/30 04:38:21;;;;;;;;;;;;;;;20.18;40.14;100990.16;102825;1294;62149;-81
2024/03/30 04:40:54;;;;;;;;;;;;;;;20.18;40.18;100986.58;102994;1291;63458;-80
2024/03/30 04:43:20;;;;;;;;;;;;;;;20.18;40.17;100984.77;102983;1291;72538;-80
2024/03/30 04:45:46;;;;;;;;;;;;;;;20.18;40.24;100980.16;102813;1294;62808;-81
2024/03/30 04:48:11;;;;;;;;;;;;;;;20.17;40.30;100979.27;102738;1294;62260;-81
2024/03/30 04:50:37;;;;;;;;;;;;;;;20.18;40.16;100978.91;102987;1294;62165;-80
2024/03/30 04:53:03;;;;;;;;;;;;;;;20.17;40.23;100978.02;102710;1294;62198;-81
2024/03/30 04:55:28;;;;;;;;;;;;;;;20.18;40.25;100977.83;102665;1291;63323;-80
2024/03/30 04:57:54;;;;;;;;;;;;;;;20.17;40.08;100974.84;102729;1291;75815;-80
2024/03/30 05:00:20;;;;;;;;;;;;;;;20.18;40.16;100981.97;103009;1292;63299;-80
2024/03/30 05:02:45;;;;;;;;;;;;;;;20.17;40.18;100981.80;102987;1294;62139;-80
2024/03/30 05:05:11;;;;;;;;;;;;;;;20.17;40.19;100982.35;103207;1292;63683;-81
2024/03/30 05:07:37;;;;;;;;;;;;;;;20.17;40.30;100984.13;102701;1292;63575;-81
2024/03/30 05:10:04;;;;;;;;;;;;;;;20.17;40.11;100985.75;102760;1295;62142;-82
2024/03/30 05:12:29;;;;;;;;;;;;;;;20.17;40.35;100984.83;102769;1290;62464;-82
2024/03/30 05:14:55;;;;;;;;;;;;;;;20.17;40.21;100982.36;102997;1291;63258;-81
2024/03/30 05:17:20;;;;;;;;;;;;;;;20.17;40.10;100978.42;102974;1294;62279;-81
2024/03/30 05:22:30;;;;;;;;;;;;;;;20.17;40.13;100974.50;102979;1290;62403;-83
2024/03/30 05:24:56;;;;;;;;;;;;;;;20.17;40.14;100970.06;102774;1292;62282;-81
2024/03/30 05:27:21;;;;;;;;;;;;;;;20.17;40.11;100972.38;102975;1294;62140;-81
2024/03/30 05:29:47;;;;;;;;;;;;;;;20.16;40.20;100967.95;102744;1294;62282;-81
2024/03/30 05:32:12;;;;;;;;;;;;;;;20.17;40.19;100969.16;102886;1292;62569;-80
2024/03/30 05:34:38;;;;;;;;;;;;;;;20.16;40.23;100970.08;102716;1291;62153;-82
2024/03/30 05:37:04;;;;;;;;;;;;;;;20.16;40.08;100968.83;102711;1292;62250;-81
2024/03/30 05:39:30;;;;;;;;;;;;;;;20.16;40.31;100967.58;102712;1290;62688;-81
2024/03/30 05:41:56;;;;;;;;;;;;;;;20.16;40.14;100963.82;102712;1292;62210;-81
2024/03/30 05:44:21;;;;;;;;;;;;;;;20.17;40.18;100968.25;103019;1294;62197;-81
2024/03/30 05:46:47;;;;;;;;;;;;;;;20.17;40.05;100965.76;102731;1292;62290;-80
2024/03/30 05:49:13;;;;;;;;;;;;;;;20.16;40.08;100965.27;102994;1294;63420;-82
2024/03/30 05:51:39;;;;;;;;;;;;;;;20.17;40.06;100967.70;102744;1294;73291;-82
2024/03/30 05:54:04;;;;;;;;;;;;;;;20.17;40.16;100968.05;102942;1292;62219;-80
2024/03/30 05:56:30;;;;;;;;;;;;;;;20.17;40.13;100964.99;102741;1294;62917;-80
2024/03/30 05:58:55;;;;;;;;;;;;;;;20.17;40.10;100964.64;102680;1291;62284;-81
2024/03/30 06:01:21;;;;;;;;;;;;;;;20.18;40.09;100961.92;102824;1294;62250;-81
2024/03/30 06:03:47;;;;;;;;;;;;;;;20.18;40.11;100968.88;102960;1291;73496;-82
2024/03/30 06:06:12;;;;;;;;;;;;;;;20.19;40.09;100968.48;102695;1294;62225;-81
2024/03/30 06:08:38;;;;;;;;;;;;;;;20.19;40.07;100970.27;102678;1290;63366;-82
2024/03/30 06:11:04;;;;;;;;;;;;;;;20.19;40.06;100968.98;102627;1291;62946;-80
2024/03/30 06:13:29;;;;;;;;;;;;;;;20.20;40.10;100971.27;103026;1292;62166;-80
2024/03/30 06:16:05;;;;;;;;;;;;;;;20.20;40.08;100968.94;102876;1291;72339;-80
2024/03/30 06:18:30;;;;;;;;;;;;;;;20.20;40.06;100964.27;102708;1291;75288;-81
2024/03/30 06:20:56;;;;;;;;;;;;;;;20.21;39.94;100963.90;102724;1294;62290;-81
2024/03/30 06:23:22;;;;;;;;;;;;;;;20.21;40.14;100961.36;102701;1291;62275;-81
2024/03/30 06:25:48;;;;;;;;;;;;;;;20.22;40.36;100963.46;102744;1290;63415;-82
2024/03/30 06:28:14;;;;;;;;;;;;;;;20.21;40.26;100960.80;102674;1292;63519;-80
2024/03/30 06:30:40;;;;;;;;;;;;;;;20.23;40.12;100963.55;103017;1294;62213;-82
2024/03/30 06:33:06;;;;;;;;;;;;;;;20.23;40.10;100963.05;102664;1292;62680;-82
2024/03/30 06:35:37;;;;;;;;;;;;;;;20.23;40.16;100961.26;102760;1291;62098;-81
2024/03/30 06:38:03;;;;;;;;;;;;;;;20.23;40.33;100962.10;102997;1291;72213;-82
2024/03/30 06:45:57;;;;;;;;;;;;;;;20.25;40.13;100963.23;103166;1294;62492;-80
2024/03/30 06:48:22;;;;;;;;;;;;;;;20.26;40.27;100961.77;102618;1292;62241;-82
2024/03/30 06:50:48;;;;;;;;;;;;;;;20.26;40.19;100967.25;102976;1294;62215;-81
2024/03/30 06:53:13;;;;;;;;;;;;;;;20.26;40.17;100962.63;103014;1290;63278;-81
2024/03/30 06:55:39;;;;;;;;;;;;;;;20.27;40.19;100967.59;102730;1294;62361;-82
2024/03/30 06:58:06;;;;;;;;;;;;;;;20.28;40.12;100964.70;102697;1289;62279;-80
2024/03/30 07:00:31;;;;;;;;;;;;;;;20.28;40.26;100963.45;102890;1291;62174;-80
2024/03/30 07:02:57;;;;;;;;;;;;;;;20.28;40.20;100962.72;102719;1294;62202;-81
2024/03/30 07:05:22;;;;;;;;;;;;;;;20.28;40.28;100960.36;102973;1294;62216;-80
2024/03/30 07:07:48;;;;;;;;;;;;;;;20.29;40.19;100961.76;102712;1292;62378;-81
2024/03/30 07:10:14;;;;;;;;;;;;;;;20.30;40.38;100963.13;102707;1291;63354;-81
2024/03/30 07:12:40;;;;;;;;;;;;;;;20.30;40.31;100960.63;102790;1294;62162;-81
2024/03/30 07:15:05;;;;;;;;;;;;;;;20.30;40.26;100956.32;103231;1292;62223;-80
2024/03/30 07:17:31;;;;;;;;;;;;;;;20.31;40.36;100956.46;102716;1292;63434;-83
2024/03/30 07:19:57;;;;;;;;;;;;;;;20.31;40.41;100957.13;102684;1289;62109;-82
2024/03/30 07:22:22;;;;;;;;;;;;;;;20.32;40.42;100958.73;102723;1294;62244;-82
2024/03/30 07:24:48;;;;;;;;;;;;;;;20.33;40.46;100960.63;102764;1289;62356;-81
2024/03/30 07:27:14;;;;;;;;;;;;;;;20.32;40.43;100958.33;102661;1295;62206;-81
2024/03/30 07:29:39;;;;;;;;;;;;;;;20.32;40.51;100955.99;103028;1290;62213;-82
2024/03/30 07:32:05;;;;;;;;;;;;;;;20.33;40.49;100956.64;103064;1296;63311;-80
2024/03/30 07:34:31;;;;;;;;;;;;;;;20.34;40.53;100952.31;102699;1294;62182;-80
2024/03/30 07:36:58;;;;;;;;;;;;;;;20.34;40.52;100952.68;102969;1294;62195;-81
2024/03/30 07:39:23;;;;;;;;;;;;;;;20.34;40.60;100949.44;103016;1294;62656;-81
2024/03/30 07:41:49;;;;;;;;;;;;;;;20.35;40.72;100949.78;102732;1294;62197;-82
2024/03/30 07:44:18;;;;;;;;;;;;;;;20.35;40.57;100950.30;103004;1292;62143;-81
2024/03/30 07:46:44;;;;;;;;;;;;;;;20.35;40.61;100949.00;102734;1290;72566;-81
2024/03/30 07:49:09;;;;;;;;;;;;;;;20.36;40.71;100946.46;102993;1290;62199;-81
2024/03/30 07:51:35;;;;;;;;;;;;;;;20.36;40.71;100948.77;102661;1297;62133;-81
2024/03/30 07:54:00;;;;;;;;;;;;;;;20.36;40.77;100947.89;102701;1294;62171;-81
2024/03/30 07:56:26;;;;;;;;;;;;;;;20.37;40.89;100947.12;102780;1294;63714;-82
2024/03/30 07:58:52;;;;;;;;;;;;;;;20.37;40.75;100947.29;102751;1294;72491;-81
2024/03/30 08:01:18;;;;;;;;;;;;;;;20.37;40.69;100950.65;102692;1295;62583;-82
2024/03/30 08:03:43;;;;;;;;;;;;;;;20.38;40.79;100943.84;103007;1294;62573;-81
2024/03/30 08:06:11;;;;;;;;;;;;;;;20.38;40.97;100943.29;102850;1289;63389;-80
2024/03/30 08:08:36;;;;;;;;;;;;;;;20.38;40.77;100939.51;102726;1294;62086;-81
2024/03/30 08:11:02;;;;;;;;;;;;;;;20.38;40.98;100938.41;102719;1295;62249;-81
2024/03/30 08:13:27;;;;;;;;;;;;;;;20.39;40.82;100939.84;103022;1294;62283;-80
2024/03/30 08:15:53;;;;;;;;;;;;;;;20.39;40.88;100934.63;102732;1291;63336;-82
2024/03/30 08:18:19;;;;;;;;;;;;;;;20.39;41.01;100931.77;102724;1290;62242;-82
2024/03/30 08:20:45;;;;;;;;;;;;;;;20.39;41.01;100932.09;103020;1294;62226;-81
2024/03/30 08:23:10;;;;;;;;;;;;;;;20.40;41.02;100932.43;102976;1294;62400;-81
2024/03/30 08:25:36;;;;;;;;;;;;;;;20.40;40.98;100930.99;102815;1294;63545;-81
2024/03/30 08:28:02;;;;;;;;;;;;;;;20.40;40.98;100931.52;102750;1292;63401;-81
2024/03/30 08:30:28;;;;;;;;;;;;;;;20.40;40.94;100930.09;103026;1292;62094;-81
2024/03/30 08:32:55;;;;;;;;;;;;;;;20.40;40.97;100930.79;102986;1294;73667;-81
2024/03/30 08:35:21;;;;;;;;;;;;;;;20.41;41.05;100930.77;102748;1294;62256;-82
2024/03/30 08:37:47;;;;;;;;;;;;;;;20.40;41.05;100929.54;103010;1295;63398;-81
2024/03/30 08:40:12;;;;;;;;;;;;;;;20.41;41.00;100932.19;103051;1294;63278;-80
2024/03/30 08:42:38;;;;;;;;;;;;;;;20.41;40.92;100930.02;102944;1294;62142;-80
2024/03/30 08:45:04;;;;;;;;;;;;;;;20.41;40.91;100933.27;102691;1294;62227;-81
2024/03/30 08:47:30;;;;;;;;;;;;;;;20.41;40.90;100934.87;103004;1294;63375;-81
2024/03/30 08:49:55;;;;;;;;;;;;;;;20.41;40.94;100933.27;102728;1295;62111;-81
2024/03/30 08:52:21;;;;;;;;;;;;;;;20.41;40.95;100929.85;102743;1295;63734;-83
2024/03/30 08:54:46;;;;;;;;;;;;;;;20.41;41.00;100923.79;102914;1294;63382;-81
2024/03/30 08:57:12;;;;;;;;;;;;;;;20.41;41.02;100921.45;102837;1294;63436;-80
2024/03/30 08:59:38;;;;;;;;;;;;;;;20.41;40.94;100918.57;102744;1294;63144;-81
2024/03/30 09:02:03;;;;;;;;;;;;;;;20.41;40.89;100916.61;102726;1294;63368;-82
2024/03/30 09:04:29;;;;;;;;;;;;;;;20.42;40.96;100917.48;102740;1295;63279;-81
2024/03/30 09:06:55;;;;;;;;;;;;;;;20.42;40.87;100914.23;102716;1295;62397;-81
2024/03/30 09:09:21;;;;;;;;;;;;;;;20.42;40.98;100911.91;102937;1303;63394;-81
2024/03/30 09:11:46;;;;;;;;;;;;;;;20.42;40.91;100919.05;102711;1289;62219;-81
2024/03/30 09:14:12;;;;;;;;;;;;;;;20.42;40.92;100917.95;103012;1303;63795;-83
2024/03/30 09:16:37;;;;;;;;;;;;;;;20.42;40.96;100914.58;102995;1295;62077;-80
2024/03/30 09:19:03;;;;;;;;;;;;;;;20.42;40.89;100913.85;102537;1298;62351;-81
2024/03/30 09:21:29;;;;;;;;;;;;;;;20.43;40.94;100912.05;102487;1297;63535;-80
2024/03/30 09:23:54;;;;;;;;;;;;;;;20.43;40.95;100912.91;102489;1299;63643;-80
2024/03/30 09:26:20;;;;;;;;;;;;;;;20.43;40.98;100914.35;102856;1293;62140;-81
2024/03/30 09:28:45;;;;;;;;;;;;;;;20.44;40.90;100912.52;102674;1299;63351;-80
2024/03/30 09:31:11;;;;;;;;;;;;;;;20.43;40.90;100914.15;102570;1298;62850;-81
2024/03/30 09:33:36;;;;;;;;;;;;;;;20.44;41.01;100915.57;102709;1292;62198;-81
2024/03/30 09:36:09;;;;;;;;;;;;;;;20.44;41.03;100918.73;102519;1297;63372;-82
2024/03/30 09:38:35;;;;;;;;;;;;;;;20.44;40.96;100917.67;102583;1298;63501;-80
2024/03/30 09:41:02;;;;;;;;;;;;;;;20.44;40.97;100912.33;102624;1294;62311;-81
2024/03/30 09:43:27;;;;;;;;;;;;;;;20.45;40.93;100913.19;102260;1298;62192;-80
2024/03/30 09:45:53;;;;;;;;;;;;;;;20.45;40.90;100908.70;102607;1296;62427;-81
2024/03/30 09:48:19;;;;;;;;;;;;;;;20.45;41.06;100908.88;102639;1295;62664;-81
2024/03/30 09:50:44;;;;;;;;;;;;;;;20.45;41.01;100909.07;102710;1295;62301;-81
2024/03/30 09:53:10;;;;;;;;;;;;;;;20.45;40.93;100907.62;102984;1303;63400;-81
2024/03/30 09:55:36;;;;;;;;;;;;;;;20.45;40.92;100909.04;102899;1293;75270;-80
2024/03/30 09:58:01;;;;;;;;;;;;;;;20.45;41.02;100909.20;102805;1295;62223;-81
2024/03/30 10:00:27;;;;;;;;;;;;;;;20.45;40.90;100909.04;103002;1294;62533;-81
2024/03/30 10:02:52;;;;;;;;;;;;;;;20.46;40.92;100909.89;102682;1297;62206;-81
2024/03/30 10:05:19;;;;;;;;;;;;;;;20.46;41.01;100907.70;102599;1294;62635;-81
2024/03/30 10:08:03;;;;;;;;;;;;;;;20.46;40.96;100901.26;102638;1296;76244;-81
2024/03/30 10:10:29;;;;;;;;;;;;;;;20.47;40.82;100901.23;102698;1298;62088;-82
2024/03/30 10:13:01;;;;;;;;;;;;;;;20.47;41.01;100903.21;102582;1297;63670;-82
2024/03/30 10:15:59;;;;;;;;;;;;;;;;;;;;;
2024/03/30 10:18:24;;;;;;;;;;;;;;;20.47;40.87;100906.98;102547;1293;75478;-80
2024/03/30 10:20:52;;;;;;;;;;;;;;;20.47;41.03;100902.48;102560;1298;62151;-82
2024/03/30 10:23:18;;;;;;;;;;;;;;;20.47;40.92;100898.89;102577;1292;62604;-82
2024/03/30 10:25:51;;;;;;;;;;;;;;;20.47;41.13;100898.02;102644;1297;62202;-80
2024/03/30 10:28:17;;;;;;;;;;;;;;;20.48;40.97;100894.38;102493;1297;75760;-81
2024/03/30 10:30:42;;;;;;;;;;;;;;;20.48;40.97;100891.88;102639;1299;62272;-82
2024/03/30 10:33:12;;;;;;;;;;;;;;;20.48;40.96;100883.85;102498;1298;62263;-80
2024/03/30 10:35:38;;;;;;;;;;;;;;;20.48;41.05;100882.05;102663;1292;72529;-79
2024/03/30 10:38:05;;;;;;;;;;;;;;;20.48;40.90;100875.77;102841;1295;62261;-81
2024/03/30 10:40:31;;;;;;;;;;;;;;;20.48;40.84;100870.96;102775;1290;62200;-81
2024/03/30 10:42:59;;;;;;;;;;;;;;;20.48;40.85;100863.80;102709;1292;63424;-80
2024/03/30 10:45:27;;;;;;;;;;;;;;;20.48;40.98;100862.91;102711;1294;73366;-81
2024/03/30 10:47:55;;;;;;;;;;;;;;;20.48;40.99;100858.95;102693;1292;76287;-81
2024/03/30 10:50:21;;;;;;;;;;;;;;;20.48;40.91;100856.99;102744;1294;62097;-80
2024/03/30 10:52:47;;;;;;;;;;;;;;;20.48;40.89;100847.87;102687;1293;63458;-81
2024/03/30 10:55:13;;;;;;;;;;;;;;;20.48;40.99;100848.24;102657;1296;62168;-83
2024/03/30 10:57:38;;;;;;;;;;;;;;;20.48;41.06;100847.20;102777;1295;62344;-81
2024/03/30 11:00:10;;;;;;;;;;;;;;;20.48;40.98;100839.66;102708;1294;62500;-81
2024/03/30 11:02:37;;;;;;;;;;;;;;;20.48;40.93;100834.11;102733;1295;62226;-81
2024/03/30 11:05:03;;;;;;;;;;;;;;;20.48;40.83;100825.21;102721;1294;72639;-82
2024/03/30 11:07:28;;;;;;;;;;;;;;;20.48;40.92;100823.94;102638;1297;62220;-81
2024/03/30 11:09:54;;;;;;;;;;;;;;;20.48;40.97;100820.89;102709;1292;62203;-81
2024/03/30 11:12:20;;;;;;;;;;;;;;;20.48;41.05;100815.55;102728;1296;63396;-81
2024/03/30 11:14:45;;;;;;;;;;;;;;;20.48;40.88;100811.06;103161;1289;62226;-81
2024/03/30 11:17:31;;;;;;;;;;;;;;;20.48;40.94;100808.03;102796;1295;62153;-82
2024/03/30 11:20:18;;;;;;;;;;;;;;;20.48;40.95;100809.46;102928;1294;75301;-81
2024/03/30 11:22:56;;;;;;;;;;;;;;;20.48;40.98;100806.05;102704;1291;62108;-81
2024/03/30 11:25:23;;;;;;;;;;;;;;;20.48;41.07;100803.71;102937;1289;62062;-82
2024/03/30 11:27:50;;;;;;;;;;;;;;;20.48;40.91;100802.48;102720;1290;72551;-83
2024/03/30 11:30:35;;;;;;;;;;;;;;;20.48;40.98;100801.75;103006;1294;62127;-81
2024/03/30 11:33:19;;;;;;;;;;;;;;;20.49;40.94;100799.40;102944;1305;62175;-81
2024/03/30 11:35:47;;;;;;;;;;;;;;;20.48;40.93;100792.64;102729;1294;62272;-79
2024/03/30 11:38:13;;;;;;;;;;;;;;;20.48;40.91;100781.58;102969;1289;72321;-82
2024/03/30 11:40:44;;;;;;;;;;;;;;;20.48;40.97;100781.38;102970;1291;62188;-80
2024/03/30 11:43:14;;;;;;;;;;;;;;;20.48;41.03;100772.45;103287;1291;63415;-80
2024/03/30 11:45:40;;;;;;;;;;;;;;;20.48;41.01;100766.88;103326;1290;64304;-80
2024/03/30 11:48:06;;;;;;;;;;;;;;;20.48;40.97;100764.73;103086;1292;62140;-80
2024/03/30 11:50:32;;;;;;;;;;;;;;;20.49;40.99;100757.52;103137;1294;62223;-80
2024/03/30 11:52:57;;;;;;;;;;;;;;;20.49;41.01;100759.13;103017;1290;62197;-81
2024/03/30 11:55:26;;;;;;;;;;;;;;;20.49;40.99;100755.88;103088;1292;63501;-82
2024/03/30 11:57:52;;;;;;;;;;;;;;;20.50;40.91;100753.20;103139;1290;62281;-80
2024/03/30 12:00:20;;;;;;;;;;;;;;;20.50;41.04;100750.67;103504;1294;62144;-81
2024/03/30 12:02:49;;;;;;;;;;;;;;;20.50;41.13;100747.83;102992;1294;63372;-81
2024/03/30 12:05:19;;;;;;;;;;;;;;;20.50;41.16;100746.16;103066;1290;62114;-81
2024/03/30 12:07:44;;;;;;;;;;;;;;;20.51;40.94;100745.41;102835;1294;73460;-81
2024/03/30 12:10:10;;;;;;;;;;;;;;;20.51;40.97;100746.34;102822;1289;62202;-82
2024/03/30 12:12:36;;;;;;;;;;;;;;;20.51;40.94;100740.60;103207;1291;62165;-80
2024/03/30 12:15:01;;;;;;;;;;;;;;;20.51;40.91;100735.95;102794;1292;62185;-83
2024/03/30 12:17:27;;;;;;;;;;;;;;;20.52;41.02;100742.15;103131;1294;62270;-79
2024/03/30 12:19:53;;;;;;;;;;;;;;;20.52;41.09;100740.02;102808;1294;62244;-81
2024/03/30 12:22:22;;;;;;;;;;;;;;;20.51;40.91;100741.48;102965;1294;75188;-82
2024/03/30 12:24:49;;;;;;;;;;;;;;;20.51;40.99;100737.17;102760;1291;63175;-80
2024/03/30 12:27:14;;;;;;;;;;;;;;;20.51;41.10;100734.84;102754;1291;62253;-81
2024/03/30 12:29:40;;;;;;;;;;;;;;;20.51;41.01;100731.82;102729;1294;62184;-82
2024/03/30 12:32:06;;;;;;;;;;;;;;;20.52;41.01;100733.73;102949;1291;62232;-80